»·PEaware :: N5020A KWHP-KCNO

N5020A :: KWHP-KCNO

FLIGHT INFORMATION

Flight Status: Arrived
Operator: Privately registered:
United States
More flights under this callsign
Pilot: Jonathan B. (16142)
Aircraft: CESSNA 182 SKYLANE
(C182)
More flights by this aircraft type
Origin: KWHP Whiteman
United States
Destination: KCNO Chino
United States
More flights between these airports :: More routes between these airports
Route: +V186 PDZ
File this flight plan on PilotEdge
Remarks: TEC Route BURP8
Altitude:
(Current/Filed)
5,000ft
Speed:
(Current/Filed)
140kts
Departed: 29-Apr-20 04:46 PM
Arrived: 29-Apr-20 05:40 PM
Distance/Time
Traveled:
42nm/0:53
Distance/Time
To Go:
Arrived

Flight Plot

Page will automatically refresh every two minutes.


Map Options




Map Legend


Flown Route
Filed Route
Departure Airport
Arrival Airport
Navaid (VOR, NDB)
Fix

Horizontal Profiles

Position Reports

Time Latitude Longitude Heading Altitude Ground
Speed
29-Apr-20 16:25 34.260003 -118.410378 225 1006ft 0kts
29-Apr-20 16:26 34.260003 -118.410378 225 1006ft 0kts
29-Apr-20 16:27 34.260003 -118.410378 225 1006ft 0kts
29-Apr-20 16:28 34.260003 -118.410378 225 1006ft 0kts
29-Apr-20 16:29 34.259924 -118.410475 225 1006ft 0kts
29-Apr-20 16:30 34.259922 -118.410478 225 1006ft 0kts
29-Apr-20 16:31 34.259571 -118.410933 234 1006ft 4kts
29-Apr-20 16:32 34.259730 -118.411423 314 1006ft 0kts
29-Apr-20 16:33 34.259581 -118.412206 231 1006ft 6kts
29-Apr-20 16:34 34.258519 -118.411981 135 1006ft 2kts
29-Apr-20 16:35 34.257202 -118.410593 130 1006ft 5kts
29-Apr-20 16:36 34.256758 -118.409845 178 1006ft 0kts
29-Apr-20 16:37 34.256750 -118.409844 178 1006ft 0kts
29-Apr-20 16:38 34.256747 -118.409844 178 1006ft 0kts
29-Apr-20 16:39 34.256744 -118.409844 178 1006ft 0kts
29-Apr-20 16:40 34.256742 -118.409844 178 1006ft 0kts
29-Apr-20 16:41 34.256739 -118.409844 178 1006ft 0kts
29-Apr-20 16:42 34.256441 -118.409788 148 1006ft 6kts
29-Apr-20 16:43 34.255589 -118.408945 154 1006ft 0kts
29-Apr-20 16:44 34.255847 -118.409848 319 1006ft 36kts
29-Apr-20 16:45 34.268641 -118.430231 267 1844ft 85kts
29-Apr-20 16:46 34.270846 -118.459846 271 3048ft 87kts
29-Apr-20 16:47 34.272643 -118.487351 270 4114ft 74kts
29-Apr-20 16:48 34.275646 -118.516016 297 4937ft 96kts
29-Apr-20 16:49 34.291503 -118.549907 238 4965ft 152kts
29-Apr-20 16:50 34.255899 -118.541627 130 4953ft 156kts
29-Apr-20 16:51 34.229661 -118.501161 130 4957ft 153kts
29-Apr-20 16:52 34.212147 -118.454332 111 4959ft 156kts
29-Apr-20 16:53 34.197832 -118.407033 112 4967ft 144kts
29-Apr-20 16:54 34.183958 -118.361358 112 4966ft 146kts
29-Apr-20 16:55 34.170010 -118.315471 112 4962ft 144kts
29-Apr-20 16:56 34.156035 -118.269578 112 4976ft 150kts
29-Apr-20 16:57 34.140929 -118.220041 112 4974ft 163kts
29-Apr-20 16:58 34.126003 -118.171141 112 4971ft 152kts
29-Apr-20 16:59 34.111736 -118.124492 112 4976ft 145kts
29-Apr-20 17:00 34.097922 -118.079413 112 5017ft 145kts
29-Apr-20 17:01 34.083518 -118.032496 112 5025ft 155kts
29-Apr-20 17:02 34.068507 -117.983689 113 5020ft 156kts
29-Apr-20 17:03 34.052553 -117.935306 113 5013ft 157kts
29-Apr-20 17:04 34.036955 -117.887890 114 5001ft 148kts
29-Apr-20 17:05 34.021602 -117.841394 114 5016ft 151kts
29-Apr-20 17:06 34.006088 -117.794400 113 5013ft 151kts
29-Apr-20 17:07 33.990704 -117.747697 113 5012ft 150kts
29-Apr-20 17:08 33.974674 -117.699204 113 4590ft 158kts
29-Apr-20 17:09 33.958453 -117.650251 113 4394ft 155kts
29-Apr-20 17:10 33.943044 -117.603511 113 4399ft 147kts
29-Apr-20 17:11 33.927490 -117.556266 113 4414ft 158kts
29-Apr-20 17:12 33.915438 -117.506402 72 4388ft 163kts
29-Apr-20 17:13 33.933006 -117.458209 64 4393ft 152kts
29-Apr-20 17:14 33.956896 -117.416743 68 4410ft 149kts
29-Apr-20 17:15 33.973106 -117.370433 68 4395ft 146kts
29-Apr-20 17:16 33.988450 -117.327016 68 4394ft 127kts
29-Apr-20 17:17 34.001589 -117.289899 69 4403ft 122kts
29-Apr-20 17:18 34.015513 -117.252715 68 4394ft 116kts
29-Apr-20 17:19 34.028669 -117.217836 68 4410ft 113kts
29-Apr-20 17:20 34.041790 -117.183833 68 4407ft 109kts
29-Apr-20 17:21 34.055282 -117.148090 68 4422ft 129kts
29-Apr-20 17:22 34.081132 -117.131910 309 4415ft 123kts
29-Apr-20 17:23 34.083826 -117.168829 262 4406ft 107kts
29-Apr-20 17:24 34.071340 -117.199781 232 4415ft 106kts
29-Apr-20 17:25 34.053576 -117.231291 233 4403ft 120kts
29-Apr-20 17:27 34.034094 -117.265221 233 4398ft 124kts
29-Apr-20 17:28 34.014126 -117.299353 233 4395ft 125kts
29-Apr-20 17:29 33.996835 -117.332462 259 4397ft 108kts
29-Apr-20 17:30 33.994722 -117.367290 262 4398ft 101kts
29-Apr-20 17:31 33.991226 -117.400625 252 4401ft 99kts
29-Apr-20 17:32 33.983823 -117.435197 253 4067ft 111kts
29-Apr-20 17:33 33.977771 -117.471156 266 3528ft 109kts
29-Apr-20 17:34 33.976906 -117.507935 265 2663ft 103kts
29-Apr-20 17:35 33.975946 -117.539491 268 1999ft 73kts
29-Apr-20 17:36 33.976340 -117.563664 264 1614ft 72kts
29-Apr-20 17:37 33.976446 -117.587052 265 1359ft 71kts
29-Apr-20 17:38 33.976065 -117.610437 265 1016ft 65kts
29-Apr-20 17:39 33.975870 -117.630478 263 686ft 60kts
29-Apr-20 17:40 33.975762 -117.642758 271 655ft 10kts
29-Apr-20 17:41 33.976479 -117.644137 0 655ft 0kts
29-Apr-20 17:42 33.976482 -117.644137 0 655ft 0kts
29-Apr-20 17:43 33.977047 -117.643464 13 655ft 8kts
29-Apr-20 17:43 33.979108 -117.643884 274 655ft 10kts
29-Apr-20 17:44 33.980764 -117.644800 357 655ft 0kts
29-Apr-20 17:46 33.980764 -117.644800 357 655ft 0kts

Navigation Log

Ident Type
Flight plan parsing failed, navigation log unavailable